Cowden, Illinois
Current Conditions -  °F | °C
As of 4:35 PM on Monday 26 Jan 2015 (Local Time) from K1H2 Reporting Station
Overcast Overcast  
Wind Chill: 25°   Ceiling: 1300
Heat Index: 30°   Visibility: 10mi
Dew Point: 24°   Wind: 5mph
Humidity: 77%   Direction: 200°SSW
Pressure: 29.94"   Gusts: NA
Location:  39.25°N, 88.86°W
Report Text: K1H2 262235Z AUTO 20004KT 10SM OVC013 M01/M04 A2994 RMK AO2 T10101045
Loading
Personal Weather Stations






























Interactive Weather Map New forecast layout! Learn more

10-Day Weather Forecast

Advertisements
Track Severe Weather on mobile